createdAt,value
2018-07-07T00:00:38.773Z,3.87
2018-07-07T00:03:07.859Z,4.33
2018-07-07T00:05:36.967Z,3.07
2018-07-07T00:08:06.120Z,3.70
2018-07-07T00:10:35.192Z,3.57
2018-07-07T00:13:04.262Z,3.20
2018-07-07T00:15:33.362Z,4.40
2018-07-07T00:18:02.416Z,4.07
2018-07-07T00:20:31.506Z,3.80
2018-07-07T00:23:00.590Z,4.10
2018-07-07T00:25:29.927Z,7.27
2018-07-07T00:27:58.999Z,7.80
2018-07-07T00:30:28.055Z,6.90
2018-07-07T00:32:57.157Z,4.00
2018-07-07T00:35:26.248Z,4.57
2018-07-07T00:37:55.355Z,4.93
2018-07-07T00:40:24.708Z,7.80
2018-07-07T00:42:53.793Z,6.93
2018-07-07T00:45:22.916Z,4.70
2018-07-07T00:47:51.967Z,4.67
2018-07-07T00:50:21.740Z,5.00
2018-07-07T00:52:50.804Z,4.50
2018-07-07T00:55:19.981Z,4.70
2018-07-07T00:57:49.068Z,5.73
2018-07-07T01:00:17.857Z,5.60
2018-07-07T01:02:47.068Z,5.03
2018-07-07T01:05:27.481Z,5.50
2018-07-07T01:07:56.693Z,4.60
2018-07-07T01:10:25.772Z,6.50
2018-07-07T01:12:54.851Z,5.10
2018-07-07T01:15:23.919Z,5.13
2018-07-07T01:17:53.000Z,5.73
2018-07-07T01:20:22.107Z,4.37
2018-07-07T01:22:51.191Z,6.03
2018-07-07T01:25:20.243Z,6.27
2018-07-07T01:27:49.310Z,5.63
2018-07-07T01:30:18.388Z,5.63
2018-07-07T01:32:47.450Z,5.63
2018-07-07T01:35:16.516Z,6.43
2018-07-07T01:37:45.686Z,6.60
2018-07-07T01:40:14.401Z,5.03
2018-07-07T01:42:43.332Z,5.90
2018-07-07T01:45:12.517Z,6.07
2018-07-07T01:47:41.580Z,6.20
2018-07-07T01:50:10.638Z,7.53
2018-07-07T01:52:39.684Z,6.87
2018-07-07T01:55:08.780Z,6.83
2018-07-07T01:57:37.820Z,6.33
2018-07-07T02:00:06.915Z,6.60
2018-07-07T02:02:35.977Z,5.70
2018-07-07T02:05:05.054Z,5.47
2018-07-07T02:07:34.095Z,5.70
2018-07-07T02:10:03.212Z,5.50
2018-07-07T02:12:32.294Z,5.70
2018-07-07T02:15:01.349Z,5.30
2018-07-07T02:17:30.392Z,5.60
2018-07-07T02:19:59.460Z,5.33
2018-07-07T02:22:28.511Z,5.13
2018-07-07T02:24:57.564Z,5.10
2018-07-07T02:27:26.647Z,6.47
2018-07-07T02:29:56.691Z,4.90
2018-07-07T02:32:25.766Z,6.27
2018-07-07T02:34:54.820Z,4.00
2018-07-07T02:37:23.877Z,5.20
2018-07-07T02:39:53.041Z,4.93
2018-07-07T02:42:22.376Z,8.40
2018-07-07T02:44:51.435Z,6.40
2018-07-07T02:47:21.116Z,8.30
2018-07-07T02:49:49.948Z,6.80
2018-07-07T02:52:18.646Z,5.87
2018-07-07T02:54:47.579Z,5.63
2018-07-07T02:57:16.639Z,6.70
2018-07-07T02:59:45.708Z,5.40
2018-07-07T03:02:14.760Z,6.07
2018-07-07T03:04:43.853Z,5.30
2018-07-07T03:07:12.942Z,6.17
2018-07-07T03:09:42.033Z,6.30
2018-07-07T03:12:11.127Z,8.10
2018-07-07T03:14:40.213Z,7.10
2018-07-07T03:17:09.277Z,6.57
2018-07-07T03:19:38.373Z,6.37
2018-07-07T03:22:07.436Z,6.20
2018-07-07T03:24:36.495Z,5.47
2018-07-07T03:27:05.611Z,6.13
2018-07-07T03:29:34.439Z,5.53
2018-07-07T03:32:03.386Z,5.83
2018-07-07T03:34:32.404Z,6.53
2018-07-07T03:37:01.478Z,6.03
2018-07-07T03:39:30.695Z,6.13
2018-07-07T03:41:59.771Z,6.27
2018-07-07T03:44:28.839Z,6.70
2018-07-07T03:46:57.895Z,6.63
2018-07-07T03:49:27.052Z,6.47
2018-07-07T03:51:56.060Z,6.97
2018-07-07T03:54:25.124Z,5.90
2018-07-07T03:56:54.205Z,7.23
2018-07-07T03:59:23.251Z,5.80
2018-07-07T04:01:52.323Z,7.43
2018-07-07T04:04:21.390Z,7.73
2018-07-07T04:06:50.460Z,6.00
2018-07-07T04:09:19.532Z,7.00
2018-07-07T04:11:48.595Z,6.63
2018-07-07T04:14:17.674Z,6.13
2018-07-07T04:16:46.755Z,5.53
2018-07-07T04:19:15.825Z,7.13
2018-07-07T04:21:44.924Z,5.03
2018-07-07T04:24:14.026Z,5.10
2018-07-07T04:26:43.107Z,4.90
2018-07-07T04:29:12.199Z,5.20
2018-07-07T04:31:41.285Z,7.00
2018-07-07T04:34:10.352Z,6.20
2018-07-07T04:36:39.173Z,5.77
2018-07-07T04:39:08.232Z,5.70
2018-07-07T04:41:37.282Z,5.90
2018-07-07T04:44:06.372Z,4.90
2018-07-07T04:46:35.465Z,4.70
2018-07-07T04:49:04.765Z,5.97
2018-07-07T04:51:33.841Z,4.53
2018-07-07T04:54:02.900Z,5.17
2018-07-07T04:56:31.994Z,5.67
2018-07-07T04:59:01.143Z,5.17
2018-07-07T05:01:30.207Z,5.80
2018-07-07T05:03:59.286Z,5.80
2018-07-07T05:06:28.382Z,6.40
2018-07-07T05:08:57.451Z,5.40
2018-07-07T05:11:26.529Z,6.37
2018-07-07T05:13:55.594Z,5.57
2018-07-07T05:16:24.396Z,5.80
2018-07-07T05:18:53.311Z,5.00
2018-07-07T05:21:22.383Z,4.40
2018-07-07T05:23:51.456Z,5.57
2018-07-07T05:26:20.511Z,6.53
2018-07-07T05:28:49.580Z,5.43
2018-07-07T05:31:18.703Z,6.57
2018-07-07T05:33:47.763Z,5.10
2018-07-07T05:36:16.906Z,5.40
2018-07-07T05:38:45.946Z,5.33
2018-07-07T05:41:14.984Z,5.70
2018-07-07T05:43:44.067Z,5.33
2018-07-07T05:46:13.220Z,6.13
2018-07-07T05:48:42.281Z,5.20
2018-07-07T05:51:11.342Z,4.93
2018-07-07T05:53:40.415Z,4.53
2018-07-07T05:56:09.523Z,5.60
2018-07-07T05:58:38.595Z,4.60
2018-07-07T06:01:07.671Z,5.43
2018-07-07T06:03:36.739Z,5.00
2018-07-07T06:06:06.004Z,4.17
2018-07-07T06:08:35.070Z,5.60
2018-07-07T06:11:04.160Z,4.43
2018-07-07T06:13:33.232Z,5.00
2018-07-07T06:16:02.310Z,5.83
2018-07-07T06:18:31.754Z,6.07
2018-07-07T06:21:00.811Z,3.73
2018-07-07T06:23:29.911Z,5.23
2018-07-07T06:25:59.128Z,6.70
2018-07-07T06:28:28.193Z,5.00
2018-07-07T06:30:57.231Z,5.87
2018-07-07T06:33:26.287Z,4.97
2018-07-07T06:35:55.373Z,5.00
2018-07-07T06:38:24.431Z,4.80
2018-07-07T06:40:53.530Z,4.87
2018-07-07T06:43:22.639Z,5.07
2018-07-07T06:45:51.687Z,4.47
2018-07-07T06:48:20.747Z,4.60
2018-07-07T06:50:49.827Z,5.67
2018-07-07T06:53:19.045Z,4.87
2018-07-07T06:55:48.084Z,4.03
2018-07-07T06:58:17.176Z,5.60
2018-07-07T07:00:46.273Z,6.97
2018-07-07T07:03:22.174Z,5.30
2018-07-07T07:05:51.328Z,5.10
2018-07-07T07:08:20.448Z,4.50
2018-07-07T07:10:49.513Z,5.83
2018-07-07T07:13:18.637Z,4.70
2018-07-07T07:15:47.711Z,4.83
2018-07-07T07:18:16.770Z,4.87
2018-07-07T07:20:46.164Z,5.67
2018-07-07T07:23:15.235Z,5.33
2018-07-07T07:25:44.292Z,5.50
2018-07-07T07:28:13.431Z,6.27
2018-07-07T07:30:42.483Z,6.73
2018-07-07T07:33:11.529Z,6.47
2018-07-07T07:35:40.729Z,7.50
2018-07-07T07:38:09.810Z,7.47
2018-07-07T07:40:38.871Z,6.20
2018-07-07T07:43:08.245Z,6.50
2018-07-07T07:45:37.447Z,8.33
2018-07-07T07:48:06.525Z,7.00
2018-07-07T07:50:35.600Z,7.60
2018-07-07T07:53:04.681Z,6.27
2018-07-07T07:55:33.746Z,7.70
2018-07-07T07:58:02.812Z,6.43
2018-07-07T08:00:31.904Z,5.43
2018-07-07T08:03:00.975Z,4.90
2018-07-07T08:05:30.139Z,5.93
2018-07-07T08:07:59.255Z,4.90
2018-07-07T08:10:28.377Z,5.43
2018-07-07T08:12:57.424Z,5.87
2018-07-07T08:15:27.414Z,6.07
2018-07-07T08:17:56.461Z,5.63
2018-07-07T08:20:25.564Z,7.77
2018-07-07T08:22:54.741Z,6.87
2018-07-07T08:25:23.784Z,6.73
2018-07-07T08:27:52.876Z,6.10
2018-07-07T08:30:21.943Z,5.80
2018-07-07T08:32:50.994Z,6.33
2018-07-07T08:35:20.035Z,5.73
2018-07-07T08:37:49.107Z,6.60
2018-07-07T08:40:18.148Z,6.00
2018-07-07T08:42:47.288Z,6.00
2018-07-07T08:45:16.311Z,6.00
2018-07-07T08:47:45.410Z,5.93
2018-07-07T08:50:14.451Z,5.67
2018-07-07T08:52:43.504Z,7.33
2018-07-07T08:55:12.563Z,6.40
2018-07-07T08:57:41.363Z,6.57
2018-07-07T09:00:10.389Z,6.93
2018-07-07T09:02:39.482Z,6.33
2018-07-07T09:05:08.663Z,6.60
2018-07-07T09:07:37.730Z,6.60
2018-07-07T09:10:06.800Z,6.30
2018-07-07T09:12:35.887Z,6.90
2018-07-07T09:15:04.948Z,7.53
2018-07-07T09:17:34.007Z,7.30
2018-07-07T09:20:03.119Z,8.77
2018-07-07T09:22:32.176Z,7.47
2018-07-07T09:25:01.935Z,7.20
2018-07-07T09:27:30.990Z,6.53
2018-07-07T09:29:59.807Z,6.97
2018-07-07T09:32:28.763Z,6.70
2018-07-07T09:34:58.003Z,5.90
2018-07-07T09:37:27.607Z,7.60
2018-07-07T09:39:56.898Z,7.00
2018-07-07T09:42:26.004Z,6.93
2018-07-07T09:44:55.057Z,5.10
2018-07-07T09:47:24.118Z,6.77
2018-07-07T09:49:53.175Z,5.33
2018-07-07T09:52:22.259Z,6.07
2018-07-07T09:54:51.306Z,6.00
2018-07-07T09:57:20.515Z,5.97
2018-07-07T09:59:49.542Z,4.90
2018-07-07T10:02:18.587Z,5.60
2018-07-07T10:04:54.557Z,6.33
2018-07-07T10:07:41.853Z,7.93
2018-07-07T10:10:11.140Z,6.50
2018-07-07T10:12:40.191Z,7.00
2018-07-07T10:15:09.278Z,6.80
2018-07-07T10:17:38.373Z,6.83
2018-07-07T10:20:07.523Z,5.83
2018-07-07T10:22:36.567Z,6.70
2018-07-07T10:25:05.673Z,6.33
2018-07-07T10:27:34.731Z,6.57
2018-07-07T10:30:03.812Z,7.00
2018-07-07T10:32:32.843Z,5.60
2018-07-07T10:35:01.899Z,5.10
2018-07-07T10:37:31.035Z,5.73
2018-07-07T10:40:00.181Z,5.23
2018-07-07T10:42:29.367Z,6.57
2018-07-07T10:44:58.435Z,6.23
2018-07-07T10:47:27.542Z,6.23
2018-07-07T10:49:56.580Z,6.83
2018-07-07T10:52:25.791Z,5.53
2018-07-07T10:54:54.838Z,6.83
2018-07-07T10:57:23.900Z,6.10
2018-07-07T10:59:53.008Z,8.13
2018-07-07T11:02:22.238Z,7.67
2018-07-07T11:04:52.121Z,6.70
2018-07-07T11:07:21.167Z,8.17
2018-07-07T11:09:50.225Z,6.40
2018-07-07T11:12:19.278Z,6.87
2018-07-07T11:14:48.364Z,8.10
2018-07-07T11:17:17.403Z,7.30
2018-07-07T11:19:46.515Z,5.00
2018-07-07T11:22:15.595Z,7.07
2018-07-07T11:24:44.634Z,6.20
2018-07-07T11:27:13.680Z,7.10
2018-07-07T11:29:42.785Z,10.53
2018-07-07T11:32:11.818Z,7.77
2018-07-07T11:34:40.883Z,6.90
2018-07-07T11:37:09.966Z,7.70
2018-07-07T11:39:39.183Z,5.83
2018-07-07T11:42:08.266Z,6.20
2018-07-07T11:44:37.331Z,8.63
2018-07-07T11:47:06.411Z,7.40
2018-07-07T11:49:35.447Z,6.70
2018-07-07T11:52:04.541Z,6.47
2018-07-07T11:54:33.596Z,7.30
2018-07-07T11:57:02.660Z,8.70
2018-07-07T11:59:31.787Z,8.23
2018-07-07T12:02:00.883Z,8.10
2018-07-07T12:04:29.963Z,6.77
2018-07-07T12:06:59.384Z,7.90
2018-07-07T12:09:28.452Z,9.27
2018-07-07T12:11:57.531Z,6.63
2018-07-07T12:14:26.640Z,4.83
2018-07-07T12:16:55.714Z,6.57
2018-07-07T12:19:24.757Z,6.40
2018-07-07T12:21:53.827Z,7.60
2018-07-07T12:24:22.903Z,8.60
2018-07-07T12:26:51.996Z,8.33
2018-07-07T12:29:21.199Z,8.27
2018-07-07T12:31:50.254Z,7.30
2018-07-07T12:34:19.310Z,6.97
2018-07-07T12:36:48.481Z,5.87
2018-07-07T12:39:17.451Z,6.07
2018-07-07T12:41:46.557Z,6.90
2018-07-07T12:44:15.603Z,11.10
2018-07-07T12:46:44.662Z,6.80
2018-07-07T12:49:13.834Z,7.47
2018-07-07T12:51:42.895Z,6.97
2018-07-07T12:54:12.034Z,6.83
2018-07-07T12:56:41.081Z,5.80
2018-07-07T12:59:10.164Z,6.90
2018-07-07T13:01:39.233Z,6.13
2018-07-07T13:04:08.347Z,6.13
2018-07-07T13:06:37.515Z,6.87
2018-07-07T13:09:07.239Z,7.20
2018-07-07T13:11:36.639Z,7.00
2018-07-07T13:14:05.820Z,7.43
2018-07-07T13:16:34.910Z,6.43
2018-07-07T13:19:04.389Z,8.60
2018-07-07T13:21:33.438Z,7.00
2018-07-07T13:24:02.507Z,6.37
2018-07-07T13:26:31.671Z,7.13
2018-07-07T13:29:00.720Z,6.10
2018-07-07T13:31:29.795Z,10.00
2018-07-07T13:33:58.878Z,7.23
2018-07-07T13:36:27.963Z,6.70
2018-07-07T13:38:57.008Z,6.60
2018-07-07T13:41:26.092Z,8.83
2018-07-07T13:43:55.152Z,8.17
2018-07-07T13:46:24.256Z,8.03
2018-07-07T13:48:53.300Z,7.80
2018-07-07T13:51:22.345Z,7.90
2018-07-07T13:53:51.380Z,7.60
2018-07-07T13:56:20.443Z,5.83
2018-07-07T13:58:49.539Z,7.87
2018-07-07T14:01:18.382Z,7.97
2018-07-07T14:03:47.339Z,7.63
2018-07-07T14:06:16.424Z,7.57
2018-07-07T14:08:45.494Z,7.60
2018-07-07T14:11:14.546Z,6.03
2018-07-07T14:13:43.732Z,7.00
2018-07-07T14:16:12.823Z,8.40
2018-07-07T14:18:41.932Z,8.20
2018-07-07T14:21:10.979Z,8.07
2018-07-07T14:23:40.007Z,9.23
2018-07-07T14:26:09.078Z,9.30
2018-07-07T14:28:38.604Z,8.03
2018-07-07T14:31:07.711Z,8.10
2018-07-07T14:33:36.741Z,5.73
2018-07-07T14:36:05.896Z,5.80
2018-07-07T14:38:36.311Z,6.17
2018-07-07T14:41:16.322Z,5.63
2018-07-07T14:43:52.830Z,4.97
2018-07-07T14:46:22.250Z,5.47
2018-07-07T14:48:51.549Z,5.17
2018-07-07T14:51:20.595Z,5.70
2018-07-07T14:53:49.713Z,5.60
2018-07-07T14:56:20.058Z,5.07
2018-07-07T14:58:49.651Z,5.50
2018-07-07T15:01:18.779Z,6.50
2018-07-07T15:03:47.852Z,7.53
2018-07-07T15:06:16.910Z,7.10
2018-07-07T15:08:46.058Z,7.27
2018-07-07T15:11:15.132Z,5.87
2018-07-07T15:13:46.909Z,5.27
2018-07-07T15:16:15.978Z,5.80
2018-07-07T15:18:45.184Z,7.87
2018-07-07T15:21:14.357Z,7.27
2018-07-07T15:23:43.456Z,6.37
2018-07-07T15:26:12.507Z,6.30
2018-07-07T15:28:41.575Z,6.30
2018-07-07T15:31:10.630Z,7.70
2018-07-07T15:33:39.716Z,6.07
2018-07-07T15:36:08.779Z,5.27
2018-07-07T15:38:37.852Z,9.57
2018-07-07T15:41:06.921Z,7.60
2018-07-07T15:43:36.127Z,8.97
2018-07-07T15:46:05.422Z,7.13
2018-07-07T15:48:34.395Z,7.00
2018-07-07T15:51:03.499Z,7.40
2018-07-07T15:53:32.620Z,6.80
2018-07-07T15:56:01.454Z,9.27
2018-07-07T15:58:30.425Z,7.60
2018-07-07T16:00:59.499Z,8.00
2018-07-07T16:03:28.667Z,8.67
2018-07-07T16:05:57.714Z,8.97
2018-07-07T16:08:26.767Z,8.40
2018-07-07T16:10:55.847Z,12.20
2018-07-07T16:13:24.923Z,8.43
2018-07-07T16:15:53.990Z,8.00
2018-07-07T16:18:23.047Z,14.50
2018-07-07T16:20:52.132Z,8.17
2018-07-07T16:23:21.215Z,9.30
2018-07-07T16:25:50.250Z,8.60
2018-07-07T16:28:19.319Z,7.80
2018-07-07T16:30:48.139Z,10.77
2018-07-07T16:33:17.067Z,6.77
2018-07-07T16:35:46.123Z,10.20
2018-07-07T16:38:15.178Z,8.60
2018-07-07T16:40:44.267Z,7.57
2018-07-07T16:43:14.170Z,10.33
2018-07-07T16:45:43.282Z,10.70
2018-07-07T16:48:12.620Z,9.67
2018-07-07T16:50:41.699Z,9.00
2018-07-07T16:53:11.052Z,11.00
2018-07-07T16:55:40.169Z,10.47
2018-07-07T16:58:09.647Z,11.83
2018-07-07T17:00:38.732Z,13.77
2018-07-07T17:03:07.877Z,15.90
2018-07-07T17:05:36.956Z,9.43
2018-07-07T17:08:06.020Z,9.33
2018-07-07T17:10:35.092Z,9.93
2018-07-07T17:13:03.906Z,12.10
2018-07-07T17:15:33.591Z,7.30
2018-07-07T17:18:04.392Z,6.57
2018-07-07T17:20:33.914Z,6.40
2018-07-07T17:23:02.707Z,9.00
2018-07-07T17:25:31.635Z,5.90
2018-07-07T17:28:00.719Z,6.20
2018-07-07T17:30:29.812Z,7.20
2018-07-07T17:32:58.890Z,7.67
2018-07-07T17:35:28.032Z,6.40
2018-07-07T17:37:57.267Z,5.63
2018-07-07T17:40:26.329Z,7.00
2018-07-07T17:42:55.869Z,7.30
2018-07-07T17:45:25.016Z,6.60
2018-07-07T17:47:54.212Z,6.83
2018-07-07T17:50:23.287Z,8.43
2018-07-07T17:52:52.427Z,6.80
2018-07-07T17:55:22.672Z,5.70
2018-07-07T17:57:51.990Z,6.33
2018-07-07T18:00:21.507Z,7.67
2018-07-07T18:02:52.272Z,8.97
2018-07-07T18:05:21.342Z,4.73
2018-07-07T18:07:50.408Z,5.23
2018-07-07T18:10:19.511Z,4.30
2018-07-07T18:12:48.569Z,5.07
2018-07-07T18:15:17.714Z,4.30
2018-07-07T18:17:46.740Z,4.40
2018-07-07T18:20:15.887Z,7.30
2018-07-07T18:22:45.125Z,5.90
2018-07-07T18:25:14.203Z,5.03
2018-07-07T18:27:43.264Z,4.37
2018-07-07T18:30:12.341Z,3.97
2018-07-07T18:32:41.580Z,4.67
2018-07-07T18:35:10.795Z,4.77
2018-07-07T18:37:39.896Z,4.47
2018-07-07T18:40:09.300Z,4.10
2018-07-07T18:42:38.387Z,4.33
2018-07-07T18:45:07.448Z,3.60
2018-07-07T18:47:36.286Z,4.20
2018-07-07T18:50:05.334Z,3.93
2018-07-07T18:52:34.424Z,4.83
2018-07-07T18:55:03.543Z,5.37
2018-07-07T18:57:32.599Z,4.27
2018-07-07T19:00:01.676Z,3.00
2018-07-07T19:02:30.743Z,3.30
2018-07-07T19:04:59.831Z,4.37
2018-07-07T19:07:29.359Z,3.83
2018-07-07T19:09:58.429Z,4.53
2018-07-07T19:12:27.508Z,4.70
2018-07-07T19:15:00.982Z,4.50
2018-07-07T19:17:30.175Z,3.70
2018-07-07T19:19:59.235Z,4.47
2018-07-07T19:22:33.658Z,4.13
2018-07-07T19:25:08.070Z,3.63
2018-07-07T19:27:37.143Z,3.93
2018-07-07T19:30:06.360Z,3.90
2018-07-07T19:32:40.783Z,3.50
2018-07-07T19:35:15.500Z,3.83
2018-07-07T19:37:44.553Z,3.10
2018-07-07T19:40:13.648Z,6.17
2018-07-07T19:42:43.150Z,3.40
2018-07-07T19:45:12.240Z,5.27
2018-07-07T19:47:41.367Z,3.27
2018-07-07T19:50:10.435Z,4.17
2018-07-07T19:52:39.490Z,3.90
2018-07-07T19:55:08.635Z,4.70
2018-07-07T19:57:37.718Z,3.67
2018-07-07T20:00:07.335Z,4.30
2018-07-07T20:02:36.416Z,3.80
2018-07-07T20:05:06.432Z,3.53
2018-07-07T20:07:35.687Z,5.60
2018-07-07T20:10:04.775Z,4.70
2018-07-07T20:12:33.827Z,4.87
2018-07-07T20:15:02.923Z,4.60
2018-07-07T20:17:44.456Z,3.80
2018-07-07T20:20:34.519Z,3.00
2018-07-07T20:23:04.871Z,3.67
2018-07-07T20:25:33.979Z,3.87
2018-07-07T20:28:08.398Z,3.80
2018-07-07T20:30:37.709Z,3.80
2018-07-07T20:33:07.178Z,3.80
2018-07-07T20:35:36.300Z,5.30
2018-07-07T20:38:05.431Z,3.50
2018-07-07T20:40:34.486Z,3.80
2018-07-07T20:43:03.597Z,5.20
2018-07-07T20:45:32.652Z,4.10
2018-07-07T20:48:01.755Z,3.73
2018-07-07T20:50:30.812Z,3.13
2018-07-07T20:52:59.872Z,3.90
2018-07-07T20:55:28.928Z,4.90
2018-07-07T20:57:58.254Z,4.03
2018-07-07T21:00:27.321Z,3.70
2018-07-07T21:02:56.367Z,3.40
2018-07-07T21:05:25.439Z,3.10
2018-07-07T21:07:54.602Z,2.67
2018-07-07T21:10:23.902Z,3.13
2018-07-07T21:12:52.999Z,3.93
2018-07-07T21:15:22.104Z,3.93
2018-07-07T21:17:51.271Z,3.90
2018-07-07T21:20:20.313Z,3.33
2018-07-07T21:22:49.363Z,2.43
2018-07-07T21:25:18.439Z,2.80
2018-07-07T21:27:47.491Z,3.80
2018-07-07T21:30:16.574Z,4.10
2018-07-07T21:32:45.610Z,2.83
2018-07-07T21:35:14.711Z,3.53
2018-07-07T21:37:43.811Z,3.93
2018-07-07T21:40:12.983Z,3.13
2018-07-07T21:42:42.114Z,2.77
2018-07-07T21:45:11.335Z,3.00
2018-07-07T21:47:40.451Z,2.53
2018-07-07T21:50:09.507Z,4.07
2018-07-07T21:52:38.623Z,4.53
2018-07-07T21:55:07.732Z,3.50
2018-07-07T21:57:42.119Z,2.83
2018-07-07T22:00:15.695Z,3.03
2018-07-07T22:02:51.731Z,3.70
2018-07-07T22:05:26.247Z,3.80
2018-07-07T22:07:55.115Z,3.03
2018-07-07T22:10:24.058Z,3.23
2018-07-07T22:12:53.108Z,3.17
2018-07-07T22:15:22.206Z,3.60
2018-07-07T22:17:51.263Z,3.43
2018-07-07T22:20:32.733Z,4.43
2018-07-07T22:23:02.057Z,2.50
2018-07-07T22:25:31.153Z,2.60
2018-07-07T22:28:00.208Z,2.83
2018-07-07T22:30:29.330Z,3.23
2018-07-07T22:33:03.703Z,2.70
2018-07-07T22:35:38.380Z,5.53
2018-07-07T22:39:12.271Z,4.13
2018-07-07T22:42:02.793Z,3.70
2018-07-07T22:44:32.467Z,3.47
2018-07-07T22:47:01.715Z,3.77
2018-07-07T22:49:31.258Z,3.50
2018-07-07T22:52:00.331Z,3.80
2018-07-07T22:54:29.389Z,2.93
2018-07-07T22:56:58.619Z,2.87
2018-07-07T22:59:27.688Z,3.30
2018-07-07T23:01:56.783Z,3.70
2018-07-07T23:04:25.827Z,3.57
2018-07-07T23:06:55.044Z,5.17
2018-07-07T23:09:24.139Z,4.23
2018-07-07T23:11:53.207Z,4.30
2018-07-07T23:14:22.414Z,3.80
2018-07-07T23:16:51.468Z,3.90
2018-07-07T23:19:20.518Z,3.60
2018-07-07T23:21:49.329Z,3.97
2018-07-07T23:24:18.424Z,4.40
2018-07-07T23:26:47.615Z,4.23
2018-07-07T23:29:16.685Z,6.33
2018-07-07T23:31:45.883Z,5.70
2018-07-07T23:34:14.968Z,5.83
2018-07-07T23:36:44.064Z,4.50
2018-07-07T23:39:13.162Z,4.13
2018-07-07T23:41:42.250Z,4.53
2018-07-07T23:44:11.361Z,4.10
2018-07-07T23:46:40.167Z,3.80
2018-07-07T23:49:09.136Z,4.03
2018-07-07T23:51:38.206Z,3.60
2018-07-07T23:54:07.299Z,5.53
2018-07-07T23:56:36.370Z,4.07
2018-07-07T23:59:05.485Z,4.10
